sensor_id;sensor_type;location;lat;lon;timestamp;P1;durP1;ratioP1;P2;durP2;ratioP2
73951;SDS011;62304;47.662;18.324;2023-06-14T00:01:27;5.72;;;2.45;;
73951;SDS011;62304;47.662;18.324;2023-06-14T00:04:31;6.93;;;2.58;;
73951;SDS011;62304;47.662;18.324;2023-06-14T00:07:35;8.13;;;2.70;;
73951;SDS011;62304;47.662;18.324;2023-06-14T00:10:39;7.95;;;3.03;;
73951;SDS011;62304;47.662;18.324;2023-06-14T00:13:44;9.23;;;3.00;;
73951;SDS011;62304;47.662;18.324;2023-06-14T00:16:47;7.45;;;2.70;;
73951;SDS011;62304;47.662;18.324;2023-06-14T00:19:50;7.82;;;3.00;;
73951;SDS011;62304;47.662;18.324;2023-06-14T00:22:54;7.27;;;3.10;;
73951;SDS011;62304;47.662;18.324;2023-06-14T00:26:00;6.57;;;2.92;;
73951;SDS011;62304;47.662;18.324;2023-06-14T00:29:03;8.15;;;2.90;;
73951;SDS011;62304;47.662;18.324;2023-06-14T00:32:06;6.15;;;2.62;;
73951;SDS011;62304;47.662;18.324;2023-06-14T00:35:10;7.22;;;2.75;;
73951;SDS011;62304;47.662;18.324;2023-06-14T00:38:13;7.57;;;3.00;;
73951;SDS011;62304;47.662;18.324;2023-06-14T00:41:16;7.32;;;3.20;;
73951;SDS011;62304;47.662;18.324;2023-06-14T00:44:19;7.70;;;3.15;;
73951;SDS011;62304;47.662;18.324;2023-06-14T00:47:24;7.07;;;3.12;;
73951;SDS011;62304;47.662;18.324;2023-06-14T00:50:27;9.52;;;3.95;;
73951;SDS011;62304;47.662;18.324;2023-06-14T00:53:32;10.10;;;3.30;;
73951;SDS011;62304;47.662;18.324;2023-06-14T00:56:38;8.27;;;3.62;;
73951;SDS011;62304;47.662;18.324;2023-06-14T00:59:44;8.98;;;3.33;;
73951;SDS011;62304;47.662;18.324;2023-06-14T01:02:50;8.88;;;4.05;;
73951;SDS011;62304;47.662;18.324;2023-06-14T01:05:56;7.78;;;3.78;;
73951;SDS011;62304;47.662;18.324;2023-06-14T01:13:19;8.80;;;4.28;;
73951;SDS011;62304;47.662;18.324;2023-06-14T01:16:25;12.05;;;4.95;;
73951;SDS011;62304;47.662;18.324;2023-06-14T01:19:30;12.02;;;4.18;;
73951;SDS011;62304;47.662;18.324;2023-06-14T01:22:36;12.95;;;4.47;;
73951;SDS011;62304;47.662;18.324;2023-06-14T01:25:40;11.07;;;4.37;;
73951;SDS011;62304;47.662;18.324;2023-06-14T01:28:46;10.60;;;4.55;;
73951;SDS011;62304;47.662;18.324;2023-06-14T01:31:51;16.20;;;4.68;;
73951;SDS011;62304;47.662;18.324;2023-06-14T01:34:56;9.90;;;4.25;;
73951;SDS011;62304;47.662;18.324;2023-06-14T01:38:02;9.50;;;4.40;;
73951;SDS011;62304;47.662;18.324;2023-06-14T01:41:06;11.03;;;4.67;;
73951;SDS011;62304;47.662;18.324;2023-06-14T01:44:11;10.57;;;4.53;;
73951;SDS011;62304;47.662;18.324;2023-06-14T01:47:16;10.77;;;4.32;;
73951;SDS011;62304;47.662;18.324;2023-06-14T01:50:20;9.82;;;4.47;;
73951;SDS011;62304;47.662;18.324;2023-06-14T01:53:23;10.35;;;4.18;;
73951;SDS011;62304;47.662;18.324;2023-06-14T01:56:26;8.90;;;4.37;;
73951;SDS011;62304;47.662;18.324;2023-06-14T01:59:29;10.90;;;4.20;;
73951;SDS011;62304;47.662;18.324;2023-06-14T02:02:34;9.98;;;4.40;;
73951;SDS011;62304;47.662;18.324;2023-06-14T02:05:37;10.23;;;4.72;;
73951;SDS011;62304;47.662;18.324;2023-06-14T02:08:42;9.65;;;4.22;;
73951;SDS011;62304;47.662;18.324;2023-06-14T02:11:45;9.73;;;4.33;;
73951;SDS011;62304;47.662;18.324;2023-06-14T02:14:48;10.88;;;4.55;;
73951;SDS011;62304;47.662;18.324;2023-06-14T02:17:51;9.75;;;4.20;;
73951;SDS011;62304;47.662;18.324;2023-06-14T02:20:56;9.15;;;3.95;;
73951;SDS011;62304;47.662;18.324;2023-06-14T02:23:59;10.50;;;3.95;;
73951;SDS011;62304;47.662;18.324;2023-06-14T02:27:04;9.27;;;4.10;;
73951;SDS011;62304;47.662;18.324;2023-06-14T02:30:07;9.75;;;3.58;;
73951;SDS011;62304;47.662;18.324;2023-06-14T02:33:11;12.43;;;3.83;;
73951;SDS011;62304;47.662;18.324;2023-06-14T02:36:15;10.25;;;4.15;;
73951;SDS011;62304;47.662;18.324;2023-06-14T02:39:18;9.70;;;3.50;;
73951;SDS011;62304;47.662;18.324;2023-06-14T02:42:23;8.63;;;3.80;;
73951;SDS011;62304;47.662;18.324;2023-06-14T02:45:26;7.60;;;3.62;;
73951;SDS011;62304;47.662;18.324;2023-06-14T02:48:29;9.88;;;3.40;;
73951;SDS011;62304;47.662;18.324;2023-06-14T02:51:32;9.18;;;4.35;;
73951;SDS011;62304;47.662;18.324;2023-06-14T02:54:35;6.78;;;3.15;;
73951;SDS011;62304;47.662;18.324;2023-06-14T02:57:39;14.03;;;4.13;;
73951;SDS011;62304;47.662;18.324;2023-06-14T03:00:42;9.45;;;3.20;;
73951;SDS011;62304;47.662;18.324;2023-06-14T03:03:48;7.50;;;3.35;;
73951;SDS011;62304;47.662;18.324;2023-06-14T03:06:52;10.38;;;3.33;;
73951;SDS011;62304;47.662;18.324;2023-06-14T03:09:57;7.28;;;3.30;;
73951;SDS011;62304;47.662;18.324;2023-06-14T03:13:00;10.10;;;3.67;;
73951;SDS011;62304;47.662;18.324;2023-06-14T03:16:04;8.93;;;3.80;;
73951;SDS011;62304;47.662;18.324;2023-06-14T03:19:07;9.30;;;3.50;;
73951;SDS011;62304;47.662;18.324;2023-06-14T03:22:10;11.60;;;4.53;;
73951;SDS011;62304;47.662;18.324;2023-06-14T03:25:14;7.03;;;3.45;;
73951;SDS011;62304;47.662;18.324;2023-06-14T03:28:18;7.43;;;3.73;;
73951;SDS011;62304;47.662;18.324;2023-06-14T03:31:21;11.95;;;3.22;;
73951;SDS011;62304;47.662;18.324;2023-06-14T03:34:25;7.70;;;3.33;;
73951;SDS011;62304;47.662;18.324;2023-06-14T03:37:28;7.85;;;3.72;;
73951;SDS011;62304;47.662;18.324;2023-06-14T03:40:32;8.00;;;3.40;;
73951;SDS011;62304;47.662;18.324;2023-06-14T03:43:35;8.73;;;3.70;;
73951;SDS011;62304;47.662;18.324;2023-06-14T03:46:38;7.95;;;3.50;;
73951;SDS011;62304;47.662;18.324;2023-06-14T03:49:42;8.82;;;3.58;;
73951;SDS011;62304;47.662;18.324;2023-06-14T03:52:47;5.43;;;2.50;;
73951;SDS011;62304;47.662;18.324;2023-06-14T03:55:51;8.60;;;3.30;;
73951;SDS011;62304;47.662;18.324;2023-06-14T03:58:59;6.67;;;3.47;;
73951;SDS011;62304;47.662;18.324;2023-06-14T04:02:03;7.20;;;3.37;;
73951;SDS011;62304;47.662;18.324;2023-06-14T04:05:07;6.53;;;3.00;;
73951;SDS011;62304;47.662;18.324;2023-06-14T04:08:11;9.40;;;3.55;;
73951;SDS011;62304;47.662;18.324;2023-06-14T04:11:17;8.80;;;3.90;;
73951;SDS011;62304;47.662;18.324;2023-06-14T04:14:20;9.27;;;4.00;;
73951;SDS011;62304;47.662;18.324;2023-06-14T04:17:25;8.70;;;3.67;;
73951;SDS011;62304;47.662;18.324;2023-06-14T04:20:28;6.62;;;2.95;;
73951;SDS011;62304;47.662;18.324;2023-06-14T04:23:31;7.65;;;3.62;;
73951;SDS011;62304;47.662;18.324;2023-06-14T04:26:35;6.93;;;3.30;;
73951;SDS011;62304;47.662;18.324;2023-06-14T04:29:39;8.30;;;3.13;;
73951;SDS011;62304;47.662;18.324;2023-06-14T04:32:42;8.52;;;3.22;;
73951;SDS011;62304;47.662;18.324;2023-06-14T04:35:47;9.20;;;3.50;;
73951;SDS011;62304;47.662;18.324;2023-06-14T04:38:52;9.13;;;3.65;;
73951;SDS011;62304;47.662;18.324;2023-06-14T04:41:57;10.60;;;4.15;;
73951;SDS011;62304;47.662;18.324;2023-06-14T04:45:03;8.33;;;4.07;;
73951;SDS011;62304;47.662;18.324;2023-06-14T04:48:07;8.82;;;3.80;;
73951;SDS011;62304;47.662;18.324;2023-06-14T04:51:10;8.80;;;4.15;;
73951;SDS011;62304;47.662;18.324;2023-06-14T04:54:13;9.40;;;3.67;;
73951;SDS011;62304;47.662;18.324;2023-06-14T04:57:17;9.30;;;3.62;;
73951;SDS011;62304;47.662;18.324;2023-06-14T05:00:21;7.77;;;3.60;;
73951;SDS011;62304;47.662;18.324;2023-06-14T05:03:25;6.90;;;3.10;;
73951;SDS011;62304;47.662;18.324;2023-06-14T05:06:30;7.28;;;3.50;;
73951;SDS011;62304;47.662;18.324;2023-06-14T05:09:33;11.18;;;3.80;;
73951;SDS011;62304;47.662;18.324;2023-06-14T05:12:37;8.27;;;3.87;;
73951;SDS011;62304;47.662;18.324;2023-06-14T05:15:40;8.07;;;3.83;;
73951;SDS011;62304;47.662;18.324;2023-06-14T05:18:43;7.72;;;3.72;;
73951;SDS011;62304;47.662;18.324;2023-06-14T05:21:47;8.23;;;3.12;;
73951;SDS011;62304;47.662;18.324;2023-06-14T05:24:50;7.20;;;3.58;;
73951;SDS011;62304;47.662;18.324;2023-06-14T05:27:53;8.27;;;3.20;;
73951;SDS011;62304;47.662;18.324;2023-06-14T05:30:56;7.47;;;3.50;;
73951;SDS011;62304;47.662;18.324;2023-06-14T05:34:00;9.48;;;2.45;;
73951;SDS011;62304;47.662;18.324;2023-06-14T05:37:04;6.72;;;3.50;;
73951;SDS011;62304;47.662;18.324;2023-06-14T05:40:07;8.93;;;3.60;;
73951;SDS011;62304;47.662;18.324;2023-06-14T05:43:11;7.12;;;2.58;;
73951;SDS011;62304;47.662;18.324;2023-06-14T05:46:14;6.87;;;3.10;;
73951;SDS011;62304;47.662;18.324;2023-06-14T05:49:18;7.62;;;3.12;;
73951;SDS011;62304;47.662;18.324;2023-06-14T05:52:20;8.30;;;3.70;;
73951;SDS011;62304;47.662;18.324;2023-06-14T05:55:23;10.73;;;3.65;;
73951;SDS011;62304;47.662;18.324;2023-06-14T05:58:27;7.12;;;3.20;;
73951;SDS011;62304;47.662;18.324;2023-06-14T06:01:30;6.43;;;3.13;;
73951;SDS011;62304;47.662;18.324;2023-06-14T06:04:35;7.10;;;3.50;;
73951;SDS011;62304;47.662;18.324;2023-06-14T06:07:38;7.00;;;3.22;;
73951;SDS011;62304;47.662;18.324;2023-06-14T06:10:48;8.48;;;3.35;;
73951;SDS011;62304;47.662;18.324;2023-06-14T06:13:51;7.03;;;3.45;;
73951;SDS011;62304;47.662;18.324;2023-06-14T06:16:54;9.97;;;2.97;;
73951;SDS011;62304;47.662;18.324;2023-06-14T06:19:57;6.35;;;2.90;;
73951;SDS011;62304;47.662;18.324;2023-06-14T06:23:01;9.57;;;3.37;;
73951;SDS011;62304;47.662;18.324;2023-06-14T06:26:04;6.82;;;2.80;;
73951;SDS011;62304;47.662;18.324;2023-06-14T06:29:07;6.60;;;3.10;;
73951;SDS011;62304;47.662;18.324;2023-06-14T06:32:10;6.93;;;2.70;;
73951;SDS011;62304;47.662;18.324;2023-06-14T06:35:13;6.35;;;3.00;;
73951;SDS011;62304;47.662;18.324;2023-06-14T06:38:17;7.00;;;3.00;;
73951;SDS011;62304;47.662;18.324;2023-06-14T06:41:21;6.82;;;3.15;;
73951;SDS011;62304;47.662;18.324;2023-06-14T06:44:24;6.35;;;3.20;;
73951;SDS011;62304;47.662;18.324;2023-06-14T06:47:28;8.27;;;3.00;;
73951;SDS011;62304;47.662;18.324;2023-06-14T06:50:31;7.95;;;2.90;;
73951;SDS011;62304;47.662;18.324;2023-06-14T06:53:35;7.32;;;2.97;;
73951;SDS011;62304;47.662;18.324;2023-06-14T06:56:46;6.57;;;3.00;;
73951;SDS011;62304;47.662;18.324;2023-06-14T06:59:49;6.45;;;3.42;;
73951;SDS011;62304;47.662;18.324;2023-06-14T07:02:52;7.27;;;2.80;;
73951;SDS011;62304;47.662;18.324;2023-06-14T07:05:58;9.55;;;3.25;;
73951;SDS011;62304;47.662;18.324;2023-06-14T07:09:00;9.95;;;4.40;;
73951;SDS011;62304;47.662;18.324;2023-06-14T07:12:04;10.07;;;4.05;;
73951;SDS011;62304;47.662;18.324;2023-06-14T07:15:07;7.90;;;4.68;;
73951;SDS011;62304;47.662;18.324;2023-06-14T07:18:11;8.50;;;4.30;;
73951;SDS011;62304;47.662;18.324;2023-06-14T07:21:17;12.73;;;4.12;;
73951;SDS011;62304;47.662;18.324;2023-06-14T07:24:21;10.55;;;4.32;;
73951;SDS011;62304;47.662;18.324;2023-06-14T07:27:24;8.75;;;4.40;;
73951;SDS011;62304;47.662;18.324;2023-06-14T07:30:28;9.57;;;4.53;;
73951;SDS011;62304;47.662;18.324;2023-06-14T07:33:32;9.60;;;4.33;;
73951;SDS011;62304;47.662;18.324;2023-06-14T07:36:35;8.70;;;4.22;;
73951;SDS011;62304;47.662;18.324;2023-06-14T07:39:39;9.07;;;4.30;;
73951;SDS011;62304;47.662;18.324;2023-06-14T07:42:42;14.55;;;4.72;;
73951;SDS011;62304;47.662;18.324;2023-06-14T07:45:45;10.32;;;4.50;;
73951;SDS011;62304;47.662;18.324;2023-06-14T07:49:07;8.67;;;4.43;;
73951;SDS011;62304;47.662;18.324;2023-06-14T07:52:10;10.23;;;4.30;;
73951;SDS011;62304;47.662;18.324;2023-06-14T07:55:13;10.05;;;5.03;;
73951;SDS011;62304;47.662;18.324;2023-06-14T07:58:18;10.98;;;5.22;;
73951;SDS011;62304;47.662;18.324;2023-06-14T08:01:21;10.13;;;4.35;;
73951;SDS011;62304;47.662;18.324;2023-06-14T08:04:26;13.27;;;4.17;;
73951;SDS011;62304;47.662;18.324;2023-06-14T08:07:29;9.68;;;4.93;;
73951;SDS011;62304;47.662;18.324;2023-06-14T08:10:32;8.35;;;4.65;;
73951;SDS011;62304;47.662;18.324;2023-06-14T08:13:35;10.68;;;5.53;;
73951;SDS011;62304;47.662;18.324;2023-06-14T08:16:39;9.20;;;4.65;;
73951;SDS011;62304;47.662;18.324;2023-06-14T08:19:41;7.90;;;4.40;;
73951;SDS011;62304;47.662;18.324;2023-06-14T08:22:45;11.10;;;5.22;;
73951;SDS011;62304;47.662;18.324;2023-06-14T08:25:49;12.80;;;5.03;;
73951;SDS011;62304;47.662;18.324;2023-06-14T08:28:52;10.18;;;4.55;;
73951;SDS011;62304;47.662;18.324;2023-06-14T08:31:55;9.30;;;5.18;;
73951;SDS011;62304;47.662;18.324;2023-06-14T08:34:58;9.97;;;4.10;;
73951;SDS011;62304;47.662;18.324;2023-06-14T08:38:07;9.90;;;4.93;;
73951;SDS011;62304;47.662;18.324;2023-06-14T08:41:11;9.55;;;4.43;;
73951;SDS011;62304;47.662;18.324;2023-06-14T08:44:16;9.50;;;4.50;;
73951;SDS011;62304;47.662;18.324;2023-06-14T08:47:19;7.68;;;4.22;;
73951;SDS011;62304;47.662;18.324;2023-06-14T08:50:24;8.50;;;4.87;;
73951;SDS011;62304;47.662;18.324;2023-06-14T08:53:39;10.40;;;4.40;;
73951;SDS011;62304;47.662;18.324;2023-06-14T08:56:44;8.27;;;4.22;;
73951;SDS011;62304;47.662;18.324;2023-06-14T08:59:48;9.07;;;4.00;;
73951;SDS011;62304;47.662;18.324;2023-06-14T09:02:54;8.27;;;4.45;;
73951;SDS011;62304;47.662;18.324;2023-06-14T09:06:01;7.17;;;4.10;;
73951;SDS011;62304;47.662;18.324;2023-06-14T09:09:06;8.82;;;4.62;;
73951;SDS011;62304;47.662;18.324;2023-06-14T09:12:10;8.10;;;4.07;;
73951;SDS011;62304;47.662;18.324;2023-06-14T09:15:14;7.53;;;4.05;;
73951;SDS011;62304;47.662;18.324;2023-06-14T09:18:18;10.68;;;4.12;;
73951;SDS011;62304;47.662;18.324;2023-06-14T09:21:22;7.93;;;4.10;;
73951;SDS011;62304;47.662;18.324;2023-06-14T09:24:26;7.37;;;4.03;;
73951;SDS011;62304;47.662;18.324;2023-06-14T09:27:29;7.15;;;4.15;;
73951;SDS011;62304;47.662;18.324;2023-06-14T09:30:36;8.20;;;4.07;;
73951;SDS011;62304;47.662;18.324;2023-06-14T09:33:42;9.35;;;4.00;;
73951;SDS011;62304;47.662;18.324;2023-06-14T09:36:51;8.63;;;4.10;;
73951;SDS011;62304;47.662;18.324;2023-06-14T09:39:54;6.93;;;3.85;;
73951;SDS011;62304;47.662;18.324;2023-06-14T09:42:57;8.45;;;3.85;;
73951;SDS011;62304;47.662;18.324;2023-06-14T09:46:00;8.20;;;3.87;;
73951;SDS011;62304;47.662;18.324;2023-06-14T09:49:04;8.73;;;3.55;;
73951;SDS011;62304;47.662;18.324;2023-06-14T09:52:10;10.00;;;3.97;;
73951;SDS011;62304;47.662;18.324;2023-06-14T09:55:16;8.98;;;3.83;;
73951;SDS011;62304;47.662;18.324;2023-06-14T09:58:21;7.40;;;3.67;;
73951;SDS011;62304;47.662;18.324;2023-06-14T10:01:26;8.88;;;3.72;;
73951;SDS011;62304;47.662;18.324;2023-06-14T10:04:32;5.85;;;3.47;;
73951;SDS011;62304;47.662;18.324;2023-06-14T10:08:13;6.10;;;3.07;;
73951;SDS011;62304;47.662;18.324;2023-06-14T10:11:07;6.10;;;3.00;;
73951;SDS011;62304;47.662;18.324;2023-06-14T10:14:11;6.97;;;3.10;;
73951;SDS011;62304;47.662;18.324;2023-06-14T10:17:33;9.68;;;3.12;;
73951;SDS011;62304;47.662;18.324;2023-06-14T10:20:48;6.57;;;3.22;;
73951;SDS011;62304;47.662;18.324;2023-06-14T10:23:56;8.87;;;3.10;;
73951;SDS011;62304;47.662;18.324;2023-06-14T10:27:03;7.15;;;3.00;;
73951;SDS011;62304;47.662;18.324;2023-06-14T10:30:14;5.18;;;2.97;;
73951;SDS011;62304;47.662;18.324;2023-06-14T10:33:18;6.72;;;3.20;;
73951;SDS011;62304;47.662;18.324;2023-06-14T10:39:24;9.13;;;2.60;;
73951;SDS011;62304;47.662;18.324;2023-06-14T10:42:29;7.75;;;2.80;;
73951;SDS011;62304;47.662;18.324;2023-06-14T10:45:34;7.70;;;2.90;;
73951;SDS011;62304;47.662;18.324;2023-06-14T10:48:44;6.78;;;2.80;;
73951;SDS011;62304;47.662;18.324;2023-06-14T10:51:50;4.60;;;2.53;;
73951;SDS011;62304;47.662;18.324;2023-06-14T10:58:03;7.40;;;2.40;;
73951;SDS011;62304;47.662;18.324;2023-06-14T11:01:06;6.43;;;2.80;;
73951;SDS011;62304;47.662;18.324;2023-06-14T11:04:10;5.53;;;3.10;;
73951;SDS011;62304;47.662;18.324;2023-06-14T11:07:25;6.30;;;3.03;;
73951;SDS011;62304;47.662;18.324;2023-06-14T11:13:42;5.93;;;2.35;;
73951;SDS011;62304;47.662;18.324;2023-06-14T11:16:51;13.00;;;3.37;;
73951;SDS011;62304;47.662;18.324;2023-06-14T11:20:09;7.68;;;3.20;;
73951;SDS011;62304;47.662;18.324;2023-06-14T11:23:22;6.85;;;3.28;;
73951;SDS011;62304;47.662;18.324;2023-06-14T11:26:26;4.87;;;2.63;;
73951;SDS011;62304;47.662;18.324;2023-06-14T11:29:31;5.85;;;3.40;;
73951;SDS011;62304;47.662;18.324;2023-06-14T11:32:34;6.37;;;3.22;;
73951;SDS011;62304;47.662;18.324;2023-06-14T11:35:38;5.65;;;3.10;;
73951;SDS011;62304;47.662;18.324;2023-06-14T11:38:41;5.97;;;3.10;;
73951;SDS011;62304;47.662;18.324;2023-06-14T11:41:44;6.80;;;3.60;;
73951;SDS011;62304;47.662;18.324;2023-06-14T11:44:49;8.35;;;3.72;;
73951;SDS011;62304;47.662;18.324;2023-06-14T11:47:53;6.95;;;3.03;;
73951;SDS011;62304;47.662;18.324;2023-06-14T11:50:59;6.35;;;3.30;;
73951;SDS011;62304;47.662;18.324;2023-06-14T11:54:05;5.72;;;3.42;;
73951;SDS011;62304;47.662;18.324;2023-06-14T11:57:09;6.43;;;3.03;;
73951;SDS011;62304;47.662;18.324;2023-06-14T12:00:13;6.37;;;2.72;;
73951;SDS011;62304;47.662;18.324;2023-06-14T12:03:18;6.65;;;3.22;;
73951;SDS011;62304;47.662;18.324;2023-06-14T12:06:27;6.30;;;2.97;;
73951;SDS011;62304;47.662;18.324;2023-06-14T12:09:32;6.82;;;3.05;;
73951;SDS011;62304;47.662;18.324;2023-06-14T12:12:36;5.90;;;2.83;;
73951;SDS011;62304;47.662;18.324;2023-06-14T12:15:40;5.97;;;3.00;;
73951;SDS011;62304;47.662;18.324;2023-06-14T12:18:43;7.97;;;3.40;;
73951;SDS011;62304;47.662;18.324;2023-06-14T12:21:47;5.82;;;3.30;;
73951;SDS011;62304;47.662;18.324;2023-06-14T12:24:52;7.00;;;3.30;;
73951;SDS011;62304;47.662;18.324;2023-06-14T12:27:55;4.97;;;2.30;;
73951;SDS011;62304;47.662;18.324;2023-06-14T12:30:58;5.20;;;3.10;;
73951;SDS011;62304;47.662;18.324;2023-06-14T12:34:01;6.72;;;3.00;;
73951;SDS011;62304;47.662;18.324;2023-06-14T12:37:05;8.18;;;3.62;;
73951;SDS011;62304;47.662;18.324;2023-06-14T12:40:08;7.18;;;3.10;;
73951;SDS011;62304;47.662;18.324;2023-06-14T12:43:14;6.67;;;2.83;;
73951;SDS011;62304;47.662;18.324;2023-06-14T12:46:19;7.75;;;3.05;;
73951;SDS011;62304;47.662;18.324;2023-06-14T12:49:23;7.20;;;3.17;;
73951;SDS011;62304;47.662;18.324;2023-06-14T12:52:26;8.60;;;3.17;;
73951;SDS011;62304;47.662;18.324;2023-06-14T12:55:29;6.35;;;2.87;;
73951;SDS011;62304;47.662;18.324;2023-06-14T12:58:32;7.90;;;3.40;;
73951;SDS011;62304;47.662;18.324;2023-06-14T13:01:37;6.55;;;2.92;;
73951;SDS011;62304;47.662;18.324;2023-06-14T13:04:42;5.78;;;3.20;;
73951;SDS011;62304;47.662;18.324;2023-06-14T13:07:45;7.53;;;2.90;;
73951;SDS011;62304;47.662;18.324;2023-06-14T13:10:49;6.75;;;3.20;;
73951;SDS011;62304;47.662;18.324;2023-06-14T13:13:52;5.10;;;2.60;;
73951;SDS011;62304;47.662;18.324;2023-06-14T13:16:55;6.22;;;2.78;;
73951;SDS011;62304;47.662;18.324;2023-06-14T13:19:58;9.18;;;4.12;;
73951;SDS011;62304;47.662;18.324;2023-06-14T13:23:01;6.20;;;3.15;;
73951;SDS011;62304;47.662;18.324;2023-06-14T13:26:07;9.43;;;3.55;;
73951;SDS011;62304;47.662;18.324;2023-06-14T13:29:10;11.43;;;2.80;;
73951;SDS011;62304;47.662;18.324;2023-06-14T13:32:13;4.30;;;2.40;;
73951;SDS011;62304;47.662;18.324;2023-06-14T13:35:16;8.20;;;3.20;;
73951;SDS011;62304;47.662;18.324;2023-06-14T13:38:19;4.53;;;2.62;;
73951;SDS011;62304;47.662;18.324;2023-06-14T13:41:22;4.82;;;2.67;;
73951;SDS011;62304;47.662;18.324;2023-06-14T13:44:25;4.90;;;2.57;;
73951;SDS011;62304;47.662;18.324;2023-06-14T13:47:28;6.18;;;2.42;;
73951;SDS011;62304;47.662;18.324;2023-06-14T13:50:31;6.18;;;2.67;;
73951;SDS011;62304;47.662;18.324;2023-06-14T13:53:34;8.52;;;3.95;;
73951;SDS011;62304;47.662;18.324;2023-06-14T13:56:38;6.10;;;2.65;;
73951;SDS011;62304;47.662;18.324;2023-06-14T13:59:41;5.53;;;2.57;;
73951;SDS011;62304;47.662;18.324;2023-06-14T14:02:46;7.43;;;2.72;;
73951;SDS011;62304;47.662;18.324;2023-06-14T14:05:50;4.65;;;2.72;;
73951;SDS011;62304;47.662;18.324;2023-06-14T14:08:52;6.53;;;2.45;;
73951;SDS011;62304;47.662;18.324;2023-06-14T14:11:57;5.55;;;2.80;;
73951;SDS011;62304;47.662;18.324;2023-06-14T14:15:01;5.70;;;2.87;;
73951;SDS011;62304;47.662;18.324;2023-06-14T14:18:04;5.37;;;2.30;;
73951;SDS011;62304;47.662;18.324;2023-06-14T14:21:07;6.68;;;2.75;;
73951;SDS011;62304;47.662;18.324;2023-06-14T14:24:10;6.03;;;2.45;;
73951;SDS011;62304;47.662;18.324;2023-06-14T14:27:13;4.85;;;2.58;;
73951;SDS011;62304;47.662;18.324;2023-06-14T14:30:16;5.93;;;2.90;;
73951;SDS011;62304;47.662;18.324;2023-06-14T14:33:21;5.90;;;2.70;;
73951;SDS011;62304;47.662;18.324;2023-06-14T14:36:24;5.05;;;2.60;;
73951;SDS011;62304;47.662;18.324;2023-06-14T14:39:27;6.85;;;2.65;;
73951;SDS011;62304;47.662;18.324;2023-06-14T14:42:30;6.93;;;2.80;;
73951;SDS011;62304;47.662;18.324;2023-06-14T14:45:33;5.33;;;2.30;;
73951;SDS011;62304;47.662;18.324;2023-06-14T14:48:36;5.97;;;2.40;;
73951;SDS011;62304;47.662;18.324;2023-06-14T14:51:39;6.30;;;2.60;;
73951;SDS011;62304;47.662;18.324;2023-06-14T14:54:42;5.20;;;2.47;;
73951;SDS011;62304;47.662;18.324;2023-06-14T14:57:45;5.15;;;2.15;;
73951;SDS011;62304;47.662;18.324;2023-06-14T15:00:50;5.30;;;2.40;;
73951;SDS011;62304;47.662;18.324;2023-06-14T15:03:53;4.43;;;2.28;;
73951;SDS011;62304;47.662;18.324;2023-06-14T15:07:01;9.40;;;2.53;;
73951;SDS011;62304;47.662;18.324;2023-06-14T15:10:05;5.82;;;2.42;;
73951;SDS011;62304;47.662;18.324;2023-06-14T15:13:10;6.28;;;2.65;;
73951;SDS011;62304;47.662;18.324;2023-06-14T15:16:13;6.20;;;2.70;;
73951;SDS011;62304;47.662;18.324;2023-06-14T15:19:19;8.38;;;2.87;;
73951;SDS011;62304;47.662;18.324;2023-06-14T15:22:22;5.87;;;2.80;;
73951;SDS011;62304;47.662;18.324;2023-06-14T15:25:28;6.30;;;2.55;;
73951;SDS011;62304;47.662;18.324;2023-06-14T15:28:32;6.28;;;2.92;;
73951;SDS011;62304;47.662;18.324;2023-06-14T15:31:35;5.40;;;2.60;;
73951;SDS011;62304;47.662;18.324;2023-06-14T15:34:38;5.50;;;2.62;;
73951;SDS011;62304;47.662;18.324;2023-06-14T15:37:42;4.82;;;2.45;;
73951;SDS011;62304;47.662;18.324;2023-06-14T15:40:45;6.05;;;2.78;;
73951;SDS011;62304;47.662;18.324;2023-06-14T15:43:49;5.72;;;2.45;;
73951;SDS011;62304;47.662;18.324;2023-06-14T15:46:52;5.47;;;2.77;;
73951;SDS011;62304;47.662;18.324;2023-06-14T15:49:55;6.47;;;2.40;;
73951;SDS011;62304;47.662;18.324;2023-06-14T15:52:58;5.10;;;2.50;;
73951;SDS011;62304;47.662;18.324;2023-06-14T15:56:01;5.60;;;2.70;;
73951;SDS011;62304;47.662;18.324;2023-06-14T15:59:04;5.80;;;2.45;;
73951;SDS011;62304;47.662;18.324;2023-06-14T16:02:07;4.63;;;2.50;;
73951;SDS011;62304;47.662;18.324;2023-06-14T16:05:12;5.28;;;2.72;;
73951;SDS011;62304;47.662;18.324;2023-06-14T16:08:16;5.53;;;3.00;;
73951;SDS011;62304;47.662;18.324;2023-06-14T16:11:33;6.80;;;2.72;;
73951;SDS011;62304;47.662;18.324;2023-06-14T16:14:35;5.80;;;2.90;;
73951;SDS011;62304;47.662;18.324;2023-06-14T16:17:39;6.63;;;3.00;;
73951;SDS011;62304;47.662;18.324;2023-06-14T16:20:42;4.78;;;2.80;;
73951;SDS011;62304;47.662;18.324;2023-06-14T16:23:45;6.55;;;2.78;;
73951;SDS011;62304;47.662;18.324;2023-06-14T16:26:48;4.80;;;2.67;;
73951;SDS011;62304;47.662;18.324;2023-06-14T16:29:54;5.40;;;2.55;;
73951;SDS011;62304;47.662;18.324;2023-06-14T16:32:57;5.10;;;2.83;;
73951;SDS011;62304;47.662;18.324;2023-06-14T16:36:01;6.68;;;2.58;;
73951;SDS011;62304;47.662;18.324;2023-06-14T16:39:04;7.37;;;2.80;;
73951;SDS011;62304;47.662;18.324;2023-06-14T16:42:07;6.43;;;2.72;;
73951;SDS011;62304;47.662;18.324;2023-06-14T16:45:10;5.93;;;3.30;;
73951;SDS011;62304;47.662;18.324;2023-06-14T16:48:14;6.70;;;2.90;;
73951;SDS011;62304;47.662;18.324;2023-06-14T16:51:16;4.50;;;2.50;;
73951;SDS011;62304;47.662;18.324;2023-06-14T16:54:20;5.12;;;2.65;;
73951;SDS011;62304;47.662;18.324;2023-06-14T16:57:23;6.03;;;2.75;;
73951;SDS011;62304;47.662;18.324;2023-06-14T17:00:26;6.20;;;2.95;;
73951;SDS011;62304;47.662;18.324;2023-06-14T17:03:28;5.60;;;2.73;;
73951;SDS011;62304;47.662;18.324;2023-06-14T17:06:34;6.85;;;2.83;;
73951;SDS011;62304;47.662;18.324;2023-06-14T17:09:37;4.60;;;2.58;;
73951;SDS011;62304;47.662;18.324;2023-06-14T17:12:40;7.10;;;2.80;;
73951;SDS011;62304;47.662;18.324;2023-06-14T17:15:43;7.00;;;2.75;;
73951;SDS011;62304;47.662;18.324;2023-06-14T17:18:48;6.90;;;2.83;;
73951;SDS011;62304;47.662;18.324;2023-06-14T17:21:51;5.53;;;2.80;;
73951;SDS011;62304;47.662;18.324;2023-06-14T17:24:55;7.25;;;2.87;;
73951;SDS011;62304;47.662;18.324;2023-06-14T17:27:58;7.57;;;3.12;;
73951;SDS011;62304;47.662;18.324;2023-06-14T17:31:01;5.12;;;2.85;;
73951;SDS011;62304;47.662;18.324;2023-06-14T17:34:05;5.30;;;2.70;;
73951;SDS011;62304;47.662;18.324;2023-06-14T17:37:08;8.35;;;3.20;;
73951;SDS011;62304;47.662;18.324;2023-06-14T17:40:11;6.70;;;3.17;;
73951;SDS011;62304;47.662;18.324;2023-06-14T17:43:15;6.10;;;3.28;;
73951;SDS011;62304;47.662;18.324;2023-06-14T17:46:18;5.72;;;2.80;;
73951;SDS011;62304;47.662;18.324;2023-06-14T17:49:22;7.80;;;2.90;;
73951;SDS011;62304;47.662;18.324;2023-06-14T17:52:28;6.97;;;3.20;;
73951;SDS011;62304;47.662;18.324;2023-06-14T17:55:31;5.57;;;2.97;;
73951;SDS011;62304;47.662;18.324;2023-06-14T17:58:35;6.97;;;2.90;;
73951;SDS011;62304;47.662;18.324;2023-06-14T18:01:39;6.22;;;3.10;;
73951;SDS011;62304;47.662;18.324;2023-06-14T18:04:42;6.87;;;2.80;;
73951;SDS011;62304;47.662;18.324;2023-06-14T18:07:45;7.90;;;3.28;;
73951;SDS011;62304;47.662;18.324;2023-06-14T18:10:48;5.70;;;2.92;;
73951;SDS011;62304;47.662;18.324;2023-06-14T18:13:51;6.25;;;2.80;;
73951;SDS011;62304;47.662;18.324;2023-06-14T18:16:55;5.22;;;2.80;;
73951;SDS011;62304;47.662;18.324;2023-06-14T18:19:58;5.73;;;2.83;;
73951;SDS011;62304;47.662;18.324;2023-06-14T18:23:03;5.78;;;2.75;;
73951;SDS011;62304;47.662;18.324;2023-06-14T18:26:06;7.40;;;2.80;;